map of BET home
BET - Airport
Location
City:  Bethel, Alaska, United States
ICAO:PABE
IATA:BET
FAA LID:BET

Details
Type:Airport (Part 139 Class I)
Use:Public/Civil
Latitude:6046'43"N (60.778556)
Longitude:16150'14"W (-161.837166)
Datum:WGS 1984
Elevation:128 ft (39 m)
Variation:11.16E (WMM2015 magnetic declination)
-0.30 annual change
Runways:3
Longest:6400 × 150 ft (1951 × 45.5 m), paved

Time
Time Zone:UTC-9 (DST-8)
Local Time:

Weather
METAR:PABE 162153Z 04008KT 10SM FEW070 OVC080 M09/M13 A2954 RMK AO2 SLP008 T10941128
TAF:PABE 161721Z 1618/1718 02015KT P6SM SCT100 BKN200
FM170400 02011KT 3SM -SHSN OVC025

Related Locations
Nearby:
Farthest:FAAF: 10631 mi / 17108 km
Struisbaai [Andrew's Field Airport], WC, ZA

Find:

   beyond  
but within

Other Information
Maps:
Delays:
NOTAMs:
Links:
Sources:

  
  • flag of United States
  • flag of Alaska
  

Airport Diagram

Airport diagram for BET

Airport diagram PDF from FAA

Sectional Chart

Flight Planning
at skyvector.com

Satellite Image

Google Maps Satellite view

 

Copyright © 2004-2019 Karl L. Swartz. All rights reserved.
The Great Circle Mapper name and logo are trademarks of the Great Circle Mapper.
All other trademarks mentioned herein belong to their respective owners.
Please see credits for attibutions and further copyright information.

  Follow gcmap on Facebook Follow gcmap on Twitter Follow gcmap on Google+ GCmap on LinkedIn

hCard Microformat

Geo Microformat